sensor_id;sensor_type;location;lat;lon;timestamp;temperature;humidity
3488;DHT22;38546;48.170;11.724;2024-01-10T00:01:25;-7.80;99.90
3488;DHT22;38546;48.170;11.724;2024-01-10T00:03:57;-7.80;99.90
3488;DHT22;38546;48.170;11.724;2024-01-10T00:06:28;-7.80;99.90
3488;DHT22;38546;48.170;11.724;2024-01-10T00:08:59;-7.70;99.90
3488;DHT22;38546;48.170;11.724;2024-01-10T00:11:29;-7.70;99.90
3488;DHT22;38546;48.170;11.724;2024-01-10T00:14:00;-7.70;99.90
3488;DHT22;38546;48.170;11.724;2024-01-10T00:16:30;-7.60;99.90
3488;DHT22;38546;48.170;11.724;2024-01-10T00:19:01;-7.60;99.90
3488;DHT22;38546;48.170;11.724;2024-01-10T00:21:32;-7.60;99.90
3488;DHT22;38546;48.170;11.724;2024-01-10T00:24:03;-7.60;99.90
3488;DHT22;38546;48.170;11.724;2024-01-10T00:26:35;-7.60;99.90
3488;DHT22;38546;48.170;11.724;2024-01-10T00:29:06;-7.60;99.90
3488;DHT22;38546;48.170;11.724;2024-01-10T00:31:37;-7.50;99.90
3488;DHT22;38546;48.170;11.724;2024-01-10T00:34:07;-7.50;99.90
3488;DHT22;38546;48.170;11.724;2024-01-10T00:36:38;-7.40;99.90
3488;DHT22;38546;48.170;11.724;2024-01-10T00:39:09;-7.40;99.90
3488;DHT22;38546;48.170;11.724;2024-01-10T00:41:39;-7.30;99.90
3488;DHT22;38546;48.170;11.724;2024-01-10T00:44:11;-7.30;99.90
3488;DHT22;38546;48.170;11.724;2024-01-10T00:46:41;-7.30;99.90
3488;DHT22;38546;48.170;11.724;2024-01-10T00:49:12;-7.30;99.90
3488;DHT22;38546;48.170;11.724;2024-01-10T00:51:43;-7.30;99.90
3488;DHT22;38546;48.170;11.724;2024-01-10T00:54:13;-7.20;99.90
3488;DHT22;38546;48.170;11.724;2024-01-10T00:56:44;-7.20;99.90
3488;DHT22;38546;48.170;11.724;2024-01-10T00:59:16;-7.20;99.90
3488;DHT22;38546;48.170;11.724;2024-01-10T01:01:46;-7.20;99.90
3488;DHT22;38546;48.170;11.724;2024-01-10T01:04:17;-7.20;99.90
3488;DHT22;38546;48.170;11.724;2024-01-10T01:06:48;-7.10;99.90
3488;DHT22;38546;48.170;11.724;2024-01-10T01:09:18;-7.10;99.90
3488;DHT22;38546;48.170;11.724;2024-01-10T01:11:49;-7.10;99.90
3488;DHT22;38546;48.170;11.724;2024-01-10T01:14:20;-7.10;99.90
3488;DHT22;38546;48.170;11.724;2024-01-10T01:16:50;-7.00;99.90
3488;DHT22;38546;48.170;11.724;2024-01-10T01:19:21;-7.00;99.90
3488;DHT22;38546;48.170;11.724;2024-01-10T01:21:52;-6.90;99.90
3488;DHT22;38546;48.170;11.724;2024-01-10T01:24:22;-6.90;99.90
3488;DHT22;38546;48.170;11.724;2024-01-10T01:26:54;-6.80;99.90
3488;DHT22;38546;48.170;11.724;2024-01-10T01:29:25;-6.70;99.90
3488;DHT22;38546;48.170;11.724;2024-01-10T01:31:56;-6.60;99.90
3488;DHT22;38546;48.170;11.724;2024-01-10T01:34:27;-6.60;99.90
3488;DHT22;38546;48.170;11.724;2024-01-10T01:36:58;-6.50;99.90
3488;DHT22;38546;48.170;11.724;2024-01-10T01:39:29;-6.40;99.90
3488;DHT22;38546;48.170;11.724;2024-01-10T01:41:59;-6.40;99.90
3488;DHT22;38546;48.170;11.724;2024-01-10T01:44:30;-6.30;99.90
3488;DHT22;38546;48.170;11.724;2024-01-10T01:47:02;-6.30;99.90
3488;DHT22;38546;48.170;11.724;2024-01-10T01:49:34;-6.20;99.90
3488;DHT22;38546;48.170;11.724;2024-01-10T01:52:05;-6.10;99.90
3488;DHT22;38546;48.170;11.724;2024-01-10T01:54:37;-6.10;99.90
3488;DHT22;38546;48.170;11.724;2024-01-10T01:57:08;-6.00;99.90
3488;DHT22;38546;48.170;11.724;2024-01-10T01:59:40;-6.00;99.90
3488;DHT22;38546;48.170;11.724;2024-01-10T02:02:11;-5.90;99.90
3488;DHT22;38546;48.170;11.724;2024-01-10T02:04:44;-5.80;99.90
3488;DHT22;38546;48.170;11.724;2024-01-10T02:07:16;-5.80;99.90
3488;DHT22;38546;48.170;11.724;2024-01-10T02:09:46;-5.70;99.90
3488;DHT22;38546;48.170;11.724;2024-01-10T02:12:18;-5.70;99.90
3488;DHT22;38546;48.170;11.724;2024-01-10T02:14:48;-5.60;99.90
3488;DHT22;38546;48.170;11.724;2024-01-10T02:17:19;-5.50;99.90
3488;DHT22;38546;48.170;11.724;2024-01-10T02:19:50;-5.50;99.90
3488;DHT22;38546;48.170;11.724;2024-01-10T02:22:20;-5.50;99.90
3488;DHT22;38546;48.170;11.724;2024-01-10T02:24:53;-5.50;99.90
3488;DHT22;38546;48.170;11.724;2024-01-10T02:27:25;-5.40;99.90
3488;DHT22;38546;48.170;11.724;2024-01-10T02:29:56;-5.40;99.90
3488;DHT22;38546;48.170;11.724;2024-01-10T02:32:28;-5.30;99.90
3488;DHT22;38546;48.170;11.724;2024-01-10T02:34:59;-5.30;99.90
3488;DHT22;38546;48.170;11.724;2024-01-10T02:37:30;-5.30;99.90
3488;DHT22;38546;48.170;11.724;2024-01-10T02:40:01;-5.20;99.90
3488;DHT22;38546;48.170;11.724;2024-01-10T02:42:32;-5.20;99.90
3488;DHT22;38546;48.170;11.724;2024-01-10T02:45:03;-5.20;99.90
3488;DHT22;38546;48.170;11.724;2024-01-10T02:47:35;-5.20;99.90
3488;DHT22;38546;48.170;11.724;2024-01-10T02:50:07;-5.20;99.90
3488;DHT22;38546;48.170;11.724;2024-01-10T02:52:38;-5.10;99.90
3488;DHT22;38546;48.170;11.724;2024-01-10T02:55:09;-5.10;99.90
3488;DHT22;38546;48.170;11.724;2024-01-10T02:57:39;-5.10;99.90
3488;DHT22;38546;48.170;11.724;2024-01-10T03:00:11;-5.10;99.90
3488;DHT22;38546;48.170;11.724;2024-01-10T03:02:43;-5.10;99.90
3488;DHT22;38546;48.170;11.724;2024-01-10T03:05:13;-5.10;99.90
3488;DHT22;38546;48.170;11.724;2024-01-10T03:07:44;-5.10;99.90
3488;DHT22;38546;48.170;11.724;2024-01-10T03:10:15;-5.10;99.90
3488;DHT22;38546;48.170;11.724;2024-01-10T03:12:45;-5.00;99.90
3488;DHT22;38546;48.170;11.724;2024-01-10T03:15:16;-5.00;99.90
3488;DHT22;38546;48.170;11.724;2024-01-10T03:17:47;-5.00;99.90
3488;DHT22;38546;48.170;11.724;2024-01-10T03:20:17;-5.00;99.90
3488;DHT22;38546;48.170;11.724;2024-01-10T03:22:48;-5.00;99.90
3488;DHT22;38546;48.170;11.724;2024-01-10T03:25:19;-5.00;99.90
3488;DHT22;38546;48.170;11.724;2024-01-10T03:27:50;-5.00;99.90
3488;DHT22;38546;48.170;11.724;2024-01-10T03:30:20;-5.00;99.90
3488;DHT22;38546;48.170;11.724;2024-01-10T03:32:54;-5.00;99.90
3488;DHT22;38546;48.170;11.724;2024-01-10T03:35:25;-5.00;99.90
3488;DHT22;38546;48.170;11.724;2024-01-10T03:37:55;-5.00;99.90
3488;DHT22;38546;48.170;11.724;2024-01-10T03:40:26;-5.00;99.90
3488;DHT22;38546;48.170;11.724;2024-01-10T03:42:57;-5.00;99.90
3488;DHT22;38546;48.170;11.724;2024-01-10T03:45:28;-5.00;99.90
3488;DHT22;38546;48.170;11.724;2024-01-10T03:48:00;-5.00;99.90
3488;DHT22;38546;48.170;11.724;2024-01-10T03:50:33;-4.90;99.90
3488;DHT22;38546;48.170;11.724;2024-01-10T03:53:04;-4.90;99.90
3488;DHT22;38546;48.170;11.724;2024-01-10T03:55:35;-4.90;99.90
3488;DHT22;38546;48.170;11.724;2024-01-10T03:58:05;-4.90;99.90
3488;DHT22;38546;48.170;11.724;2024-01-10T04:00:36;-4.90;99.90
3488;DHT22;38546;48.170;11.724;2024-01-10T04:03:07;-4.90;99.90
3488;DHT22;38546;48.170;11.724;2024-01-10T04:05:37;-4.90;99.90
3488;DHT22;38546;48.170;11.724;2024-01-10T04:08:08;-4.90;99.90
3488;DHT22;38546;48.170;11.724;2024-01-10T04:10:39;-4.90;99.90
3488;DHT22;38546;48.170;11.724;2024-01-10T04:13:09;-5.00;99.90
3488;DHT22;38546;48.170;11.724;2024-01-10T04:15:40;-5.00;99.90
3488;DHT22;38546;48.170;11.724;2024-01-10T04:18:12;-5.00;99.90
3488;DHT22;38546;48.170;11.724;2024-01-10T04:20:43;-5.00;99.90
3488;DHT22;38546;48.170;11.724;2024-01-10T04:23:14;-5.00;99.90
3488;DHT22;38546;48.170;11.724;2024-01-10T04:25:45;-5.00;99.90
3488;DHT22;38546;48.170;11.724;2024-01-10T04:28:15;-5.10;99.90
3488;DHT22;38546;48.170;11.724;2024-01-10T04:30:46;-5.10;99.90
3488;DHT22;38546;48.170;11.724;2024-01-10T04:33:17;-5.00;99.90
3488;DHT22;38546;48.170;11.724;2024-01-10T04:35:47;-5.00;99.90
3488;DHT22;38546;48.170;11.724;2024-01-10T04:38:18;-5.00;99.90
3488;DHT22;38546;48.170;11.724;2024-01-10T04:40:49;-5.10;99.90
3488;DHT22;38546;48.170;11.724;2024-01-10T04:43:19;-5.00;99.90
3488;DHT22;38546;48.170;11.724;2024-01-10T04:45:50;-5.00;99.90
3488;DHT22;38546;48.170;11.724;2024-01-10T04:48:21;-5.00;99.90
3488;DHT22;38546;48.170;11.724;2024-01-10T04:50:53;-5.00;99.90
3488;DHT22;38546;48.170;11.724;2024-01-10T04:53:24;-5.00;99.90
3488;DHT22;38546;48.170;11.724;2024-01-10T04:55:54;-5.00;99.90
3488;DHT22;38546;48.170;11.724;2024-01-10T04:58:28;-5.00;99.90
3488;DHT22;38546;48.170;11.724;2024-01-10T05:01:00;-5.00;99.90
3488;DHT22;38546;48.170;11.724;2024-01-10T05:03:31;-5.00;99.90
3488;DHT22;38546;48.170;11.724;2024-01-10T05:06:01;-5.00;99.90
3488;DHT22;38546;48.170;11.724;2024-01-10T05:08:32;-5.10;99.90
3488;DHT22;38546;48.170;11.724;2024-01-10T05:11:03;-5.00;99.90
3488;DHT22;38546;48.170;11.724;2024-01-10T05:13:34;-5.00;99.90
3488;DHT22;38546;48.170;11.724;2024-01-10T05:16:05;-5.00;99.90
3488;DHT22;38546;48.170;11.724;2024-01-10T05:18:36;-5.00;99.90
3488;DHT22;38546;48.170;11.724;2024-01-10T05:21:07;-5.00;99.90
3488;DHT22;38546;48.170;11.724;2024-01-10T05:23:38;-5.00;99.90
3488;DHT22;38546;48.170;11.724;2024-01-10T05:26:10;-5.00;99.90
3488;DHT22;38546;48.170;11.724;2024-01-10T05:28:41;-5.00;99.90
3488;DHT22;38546;48.170;11.724;2024-01-10T05:31:12;-5.00;99.90
3488;DHT22;38546;48.170;11.724;2024-01-10T05:33:42;-5.00;99.90
3488;DHT22;38546;48.170;11.724;2024-01-10T05:36:13;-5.00;99.90
3488;DHT22;38546;48.170;11.724;2024-01-10T05:38:44;-5.00;99.90
3488;DHT22;38546;48.170;11.724;2024-01-10T05:41:15;-5.00;99.90
3488;DHT22;38546;48.170;11.724;2024-01-10T05:43:45;-5.00;99.90
3488;DHT22;38546;48.170;11.724;2024-01-10T05:46:16;-5.00;99.90
3488;DHT22;38546;48.170;11.724;2024-01-10T05:48:47;-5.00;99.90
3488;DHT22;38546;48.170;11.724;2024-01-10T05:51:18;-5.10;99.90
3488;DHT22;38546;48.170;11.724;2024-01-10T05:53:49;-5.00;99.90
3488;DHT22;38546;48.170;11.724;2024-01-10T05:56:20;-5.10;99.90
3488;DHT22;38546;48.170;11.724;2024-01-10T05:58:50;-5.10;99.90
3488;DHT22;38546;48.170;11.724;2024-01-10T06:01:21;-5.10;99.90
3488;DHT22;38546;48.170;11.724;2024-01-10T06:03:51;-5.10;99.90
3488;DHT22;38546;48.170;11.724;2024-01-10T06:06:22;-5.00;99.90
3488;DHT22;38546;48.170;11.724;2024-01-10T06:08:53;-5.00;99.90
3488;DHT22;38546;48.170;11.724;2024-01-10T06:11:24;-5.00;99.90
3488;DHT22;38546;48.170;11.724;2024-01-10T06:13:55;-5.10;99.90
3488;DHT22;38546;48.170;11.724;2024-01-10T06:16:27;-5.10;99.90
3488;DHT22;38546;48.170;11.724;2024-01-10T06:18:58;-5.00;99.90
3488;DHT22;38546;48.170;11.724;2024-01-10T06:21:29;-5.00;99.90
3488;DHT22;38546;48.170;11.724;2024-01-10T06:23:59;-5.00;99.90
3488;DHT22;38546;48.170;11.724;2024-01-10T06:26:30;-5.00;99.90
3488;DHT22;38546;48.170;11.724;2024-01-10T06:29:01;-5.10;99.90
3488;DHT22;38546;48.170;11.724;2024-01-10T06:31:31;-5.10;99.90
3488;DHT22;38546;48.170;11.724;2024-01-10T06:34:02;-5.10;99.90
3488;DHT22;38546;48.170;11.724;2024-01-10T06:36:32;-5.10;99.90
3488;DHT22;38546;48.170;11.724;2024-01-10T06:39:03;-5.10;99.90
3488;DHT22;38546;48.170;11.724;2024-01-10T06:41:34;-5.10;99.90
3488;DHT22;38546;48.170;11.724;2024-01-10T06:44:05;-5.20;99.90
3488;DHT22;38546;48.170;11.724;2024-01-10T06:46:35;-5.20;99.90
3488;DHT22;38546;48.170;11.724;2024-01-10T06:49:06;-5.20;99.90
3488;DHT22;38546;48.170;11.724;2024-01-10T06:51:38;-5.20;99.90
3488;DHT22;38546;48.170;11.724;2024-01-10T06:54:09;-5.20;99.90
3488;DHT22;38546;48.170;11.724;2024-01-10T06:56:40;-5.20;99.90
3488;DHT22;38546;48.170;11.724;2024-01-10T06:59:11;-5.20;99.90
3488;DHT22;38546;48.170;11.724;2024-01-10T07:01:42;-5.20;99.90
3488;DHT22;38546;48.170;11.724;2024-01-10T07:04:12;-5.20;99.90
3488;DHT22;38546;48.170;11.724;2024-01-10T07:06:43;-5.10;99.90
3488;DHT22;38546;48.170;11.724;2024-01-10T07:09:14;-5.10;99.90
3488;DHT22;38546;48.170;11.724;2024-01-10T07:11:50;-5.10;99.90
3488;DHT22;38546;48.170;11.724;2024-01-10T07:14:20;-5.10;99.90
3488;DHT22;38546;48.170;11.724;2024-01-10T07:16:51;-5.20;99.90
3488;DHT22;38546;48.170;11.724;2024-01-10T07:19:22;-5.20;99.90
3488;DHT22;38546;48.170;11.724;2024-01-10T07:21:54;-5.20;99.90
3488;DHT22;38546;48.170;11.724;2024-01-10T07:24:25;-5.20;99.90
3488;DHT22;38546;48.170;11.724;2024-01-10T07:26:56;-5.20;99.90
3488;DHT22;38546;48.170;11.724;2024-01-10T07:29:27;-5.30;99.90
3488;DHT22;38546;48.170;11.724;2024-01-10T07:31:58;-5.30;99.90
3488;DHT22;38546;48.170;11.724;2024-01-10T07:34:28;-5.30;99.90
3488;DHT22;38546;48.170;11.724;2024-01-10T07:36:59;-5.30;99.90
3488;DHT22;38546;48.170;11.724;2024-01-10T07:39:29;-5.30;99.90
3488;DHT22;38546;48.170;11.724;2024-01-10T07:42:00;-5.30;99.90
3488;DHT22;38546;48.170;11.724;2024-01-10T07:44:32;-5.20;99.90
3488;DHT22;38546;48.170;11.724;2024-01-10T07:47:03;-5.20;99.90
3488;DHT22;38546;48.170;11.724;2024-01-10T07:49:34;-5.20;99.90
3488;DHT22;38546;48.170;11.724;2024-01-10T07:52:05;-5.20;99.90
3488;DHT22;38546;48.170;11.724;2024-01-10T07:54:36;-5.10;99.90
3488;DHT22;38546;48.170;11.724;2024-01-10T07:57:07;-5.10;99.90
3488;DHT22;38546;48.170;11.724;2024-01-10T07:59:37;-5.10;99.90
3488;DHT22;38546;48.170;11.724;2024-01-10T08:02:09;-5.00;99.90
3488;DHT22;38546;48.170;11.724;2024-01-10T08:04:40;-5.00;99.90
3488;DHT22;38546;48.170;11.724;2024-01-10T08:07:11;-5.00;99.90
3488;DHT22;38546;48.170;11.724;2024-01-10T08:09:42;-4.90;99.90
3488;DHT22;38546;48.170;11.724;2024-01-10T08:12:13;-4.90;99.90
3488;DHT22;38546;48.170;11.724;2024-01-10T08:14:44;-4.80;99.90
3488;DHT22;38546;48.170;11.724;2024-01-10T08:17:20;-4.80;99.90
3488;DHT22;38546;48.170;11.724;2024-01-10T08:19:51;-4.70;99.90
3488;DHT22;38546;48.170;11.724;2024-01-10T08:22:22;-4.80;99.90
3488;DHT22;38546;48.170;11.724;2024-01-10T08:24:53;-4.80;99.90
3488;DHT22;38546;48.170;11.724;2024-01-10T08:27:24;-4.70;99.90
3488;DHT22;38546;48.170;11.724;2024-01-10T08:29:54;-4.70;99.90
3488;DHT22;38546;48.170;11.724;2024-01-10T08:32:25;-4.70;99.90
3488;DHT22;38546;48.170;11.724;2024-01-10T08:34:56;-4.70;99.90
3488;DHT22;38546;48.170;11.724;2024-01-10T08:37:27;-4.80;99.90
3488;DHT22;38546;48.170;11.724;2024-01-10T08:39:58;-4.80;99.90
3488;DHT22;38546;48.170;11.724;2024-01-10T08:42:30;-4.70;99.90
3488;DHT22;38546;48.170;11.724;2024-01-10T08:45:01;-4.60;99.90
3488;DHT22;38546;48.170;11.724;2024-01-10T08:47:31;-4.60;99.90
3488;DHT22;38546;48.170;11.724;2024-01-10T08:50:04;-4.60;99.90
3488;DHT22;38546;48.170;11.724;2024-01-10T08:52:36;-4.50;99.90
3488;DHT22;38546;48.170;11.724;2024-01-10T08:55:10;-4.40;99.90
3488;DHT22;38546;48.170;11.724;2024-01-10T08:57:41;-4.40;99.90
3488;DHT22;38546;48.170;11.724;2024-01-10T09:00:16;-4.30;99.90
3488;DHT22;38546;48.170;11.724;2024-01-10T09:02:46;-4.30;99.90
3488;DHT22;38546;48.170;11.724;2024-01-10T09:05:17;-4.30;99.90
3488;DHT22;38546;48.170;11.724;2024-01-10T09:07:49;-4.40;99.90
3488;DHT22;38546;48.170;11.724;2024-01-10T09:10:20;-4.30;99.90
3488;DHT22;38546;48.170;11.724;2024-01-10T09:12:53;-4.40;99.90
3488;DHT22;38546;48.170;11.724;2024-01-10T09:15:24;-4.30;99.90
3488;DHT22;38546;48.170;11.724;2024-01-10T09:17:55;-4.30;99.90
3488;DHT22;38546;48.170;11.724;2024-01-10T09:20:25;-4.20;99.90
3488;DHT22;38546;48.170;11.724;2024-01-10T09:22:56;-4.20;99.90
3488;DHT22;38546;48.170;11.724;2024-01-10T09:25:27;-4.30;99.90
3488;DHT22;38546;48.170;11.724;2024-01-10T09:27:57;-4.40;99.90
3488;DHT22;38546;48.170;11.724;2024-01-10T09:30:29;-4.40;99.90
3488;DHT22;38546;48.170;11.724;2024-01-10T09:33:00;-4.30;99.90
3488;DHT22;38546;48.170;11.724;2024-01-10T09:35:31;-4.20;99.90
3488;DHT22;38546;48.170;11.724;2024-01-10T09:38:02;-4.20;99.90
3488;DHT22;38546;48.170;11.724;2024-01-10T09:40:33;-4.00;99.90
3488;DHT22;38546;48.170;11.724;2024-01-10T09:43:05;-4.00;99.90
3488;DHT22;38546;48.170;11.724;2024-01-10T09:45:43;-3.90;99.90
3488;DHT22;38546;48.170;11.724;2024-01-10T09:48:16;-3.80;99.90
3488;DHT22;38546;48.170;11.724;2024-01-10T09:50:50;-3.70;99.90
3488;DHT22;38546;48.170;11.724;2024-01-10T09:53:23;-3.70;99.90
3488;DHT22;38546;48.170;11.724;2024-01-10T09:55:55;-3.70;99.90
3488;DHT22;38546;48.170;11.724;2024-01-10T09:58:27;-3.70;99.90
3488;DHT22;38546;48.170;11.724;2024-01-10T10:00:57;-3.70;99.90
3488;DHT22;38546;48.170;11.724;2024-01-10T10:03:29;-3.60;99.90
3488;DHT22;38546;48.170;11.724;2024-01-10T10:06:00;-3.60;99.90
3488;DHT22;38546;48.170;11.724;2024-01-10T10:08:31;-3.60;99.90
3488;DHT22;38546;48.170;11.724;2024-01-10T10:11:02;-3.50;99.90
3488;DHT22;38546;48.170;11.724;2024-01-10T10:13:32;-3.60;99.90
3488;DHT22;38546;48.170;11.724;2024-01-10T10:16:06;-3.50;99.90
3488;DHT22;38546;48.170;11.724;2024-01-10T10:18:37;-3.40;99.90
3488;DHT22;38546;48.170;11.724;2024-01-10T10:21:14;-3.50;99.90
3488;DHT22;38546;48.170;11.724;2024-01-10T10:24:02;-3.40;99.90
3488;DHT22;38546;48.170;11.724;2024-01-10T10:26:37;-3.50;99.90
3488;DHT22;38546;48.170;11.724;2024-01-10T10:29:08;-3.30;99.90
3488;DHT22;38546;48.170;11.724;2024-01-10T10:31:39;-3.20;99.90
3488;DHT22;38546;48.170;11.724;2024-01-10T10:34:10;-3.10;99.90
3488;DHT22;38546;48.170;11.724;2024-01-10T10:36:42;-3.00;99.90
3488;DHT22;38546;48.170;11.724;2024-01-10T10:39:16;-2.90;99.90
3488;DHT22;38546;48.170;11.724;2024-01-10T10:41:47;-2.70;99.90
3488;DHT22;38546;48.170;11.724;2024-01-10T10:44:21;-2.70;99.90
3488;DHT22;38546;48.170;11.724;2024-01-10T10:46:54;-2.60;99.90
3488;DHT22;38546;48.170;11.724;2024-01-10T10:49:29;-2.60;99.90
3488;DHT22;38546;48.170;11.724;2024-01-10T10:52:02;-2.50;99.90
3488;DHT22;38546;48.170;11.724;2024-01-10T10:54:34;-2.50;99.90
3488;DHT22;38546;48.170;11.724;2024-01-10T10:57:06;-2.50;99.90
3488;DHT22;38546;48.170;11.724;2024-01-10T10:59:38;-2.40;99.90
3488;DHT22;38546;48.170;11.724;2024-01-10T11:02:10;-2.40;99.90
3488;DHT22;38546;48.170;11.724;2024-01-10T11:04:41;-2.30;99.90
3488;DHT22;38546;48.170;11.724;2024-01-10T11:07:12;-2.30;99.90
3488;DHT22;38546;48.170;11.724;2024-01-10T11:09:45;-2.30;99.90
3488;DHT22;38546;48.170;11.724;2024-01-10T11:12:43;-2.30;99.90
3488;DHT22;38546;48.170;11.724;2024-01-10T11:26:20;-2.50;99.90
3488;DHT22;38546;48.170;11.724;2024-01-10T11:28:51;-3.10;99.90
3488;DHT22;38546;48.170;11.724;2024-01-10T11:31:29;-3.20;99.90
3488;DHT22;38546;48.170;11.724;2024-01-10T11:34:01;-3.10;99.90
3488;DHT22;38546;48.170;11.724;2024-01-10T11:36:34;-3.00;99.90
3488;DHT22;38546;48.170;11.724;2024-01-10T11:39:05;-2.90;99.90
3488;DHT22;38546;48.170;11.724;2024-01-10T11:41:38;-2.70;99.90
3488;DHT22;38546;48.170;11.724;2024-01-10T11:44:31;-2.80;99.90
3488;DHT22;38546;48.170;11.724;2024-01-10T11:47:04;-2.90;99.90
3488;DHT22;38546;48.170;11.724;2024-01-10T11:49:35;-3.10;99.90
3488;DHT22;38546;48.170;11.724;2024-01-10T11:52:06;-3.40;99.90
3488;DHT22;38546;48.170;11.724;2024-01-10T11:54:42;-3.70;99.90
3488;DHT22;38546;48.170;11.724;2024-01-10T11:57:21;-3.70;99.90
3488;DHT22;38546;48.170;11.724;2024-01-10T11:59:56;-3.40;99.90
3488;DHT22;38546;48.170;11.724;2024-01-10T12:02:27;-3.40;99.90
3488;DHT22;38546;48.170;11.724;2024-01-10T12:04:58;-3.40;99.90
3488;DHT22;38546;48.170;11.724;2024-01-10T12:07:29;-3.10;99.90
3488;DHT22;38546;48.170;11.724;2024-01-10T12:10:00;-3.00;99.90
3488;DHT22;38546;48.170;11.724;2024-01-10T12:12:31;-3.00;99.90
3488;DHT22;38546;48.170;11.724;2024-01-10T12:15:03;-2.90;99.90
3488;DHT22;38546;48.170;11.724;2024-01-10T12:17:36;-3.00;99.90
3488;DHT22;38546;48.170;11.724;2024-01-10T12:20:07;-3.30;99.90
3488;DHT22;38546;48.170;11.724;2024-01-10T12:22:38;-3.30;99.90
3488;DHT22;38546;48.170;11.724;2024-01-10T12:25:09;-3.40;99.90
3488;DHT22;38546;48.170;11.724;2024-01-10T12:27:40;-3.30;99.90
3488;DHT22;38546;48.170;11.724;2024-01-10T12:30:11;-3.30;99.90
3488;DHT22;38546;48.170;11.724;2024-01-10T12:32:42;-3.30;99.90
3488;DHT22;38546;48.170;11.724;2024-01-10T12:35:13;-3.20;99.90
3488;DHT22;38546;48.170;11.724;2024-01-10T12:37:53;-3.20;99.90
3488;DHT22;38546;48.170;11.724;2024-01-10T12:40:25;-3.20;99.90
3488;DHT22;38546;48.170;11.724;2024-01-10T12:43:03;-3.10;99.90
3488;DHT22;38546;48.170;11.724;2024-01-10T12:45:35;-3.10;99.90
3488;DHT22;38546;48.170;11.724;2024-01-10T12:48:06;-3.20;99.90
3488;DHT22;38546;48.170;11.724;2024-01-10T12:50:38;-3.20;99.90
3488;DHT22;38546;48.170;11.724;2024-01-10T12:53:09;-3.40;99.90
3488;DHT22;38546;48.170;11.724;2024-01-10T12:55:40;-3.60;99.90
3488;DHT22;38546;48.170;11.724;2024-01-10T12:58:11;-3.40;99.90
3488;DHT22;38546;48.170;11.724;2024-01-10T13:00:42;-3.30;99.90
3488;DHT22;38546;48.170;11.724;2024-01-10T13:03:13;-3.20;99.90
3488;DHT22;38546;48.170;11.724;2024-01-10T13:05:43;-3.00;99.90
3488;DHT22;38546;48.170;11.724;2024-01-10T13:08:14;-3.00;99.90
3488;DHT22;38546;48.170;11.724;2024-01-10T13:10:46;-3.00;99.90
3488;DHT22;38546;48.170;11.724;2024-01-10T13:13:20;-3.10;99.90
3488;DHT22;38546;48.170;11.724;2024-01-10T13:15:53;-3.60;99.90
3488;DHT22;38546;48.170;11.724;2024-01-10T13:18:23;-3.30;99.90
3488;DHT22;38546;48.170;11.724;2024-01-10T13:20:55;-3.20;99.90
3488;DHT22;38546;48.170;11.724;2024-01-10T13:23:26;-3.00;99.90
3488;DHT22;38546;48.170;11.724;2024-01-10T13:25:56;-2.90;99.90
3488;DHT22;38546;48.170;11.724;2024-01-10T13:28:27;-2.90;99.90
3488;DHT22;38546;48.170;11.724;2024-01-10T13:30:58;-2.80;99.90
3488;DHT22;38546;48.170;11.724;2024-01-10T13:33:29;-2.90;99.90
3488;DHT22;38546;48.170;11.724;2024-01-10T13:36:00;-3.20;99.90
3488;DHT22;38546;48.170;11.724;2024-01-10T13:38:31;-3.60;99.90
3488;DHT22;38546;48.170;11.724;2024-01-10T13:41:02;-3.70;99.90
3488;DHT22;38546;48.170;11.724;2024-01-10T13:43:32;-3.80;99.90
3488;DHT22;38546;48.170;11.724;2024-01-10T13:46:03;-3.80;99.90
3488;DHT22;38546;48.170;11.724;2024-01-10T13:48:34;-3.70;99.90
3488;DHT22;38546;48.170;11.724;2024-01-10T13:51:05;-3.70;99.90
3488;DHT22;38546;48.170;11.724;2024-01-10T13:53:35;-3.50;99.90
3488;DHT22;38546;48.170;11.724;2024-01-10T13:56:06;-3.40;99.90
3488;DHT22;38546;48.170;11.724;2024-01-10T13:58:37;-3.60;99.90
3488;DHT22;38546;48.170;11.724;2024-01-10T14:01:09;-3.50;99.90
3488;DHT22;38546;48.170;11.724;2024-01-10T14:03:40;-3.50;99.90
3488;DHT22;38546;48.170;11.724;2024-01-10T14:06:11;-3.40;99.90
3488;DHT22;38546;48.170;11.724;2024-01-10T14:08:42;-3.40;99.90
3488;DHT22;38546;48.170;11.724;2024-01-10T14:11:14;-3.40;99.90
3488;DHT22;38546;48.170;11.724;2024-01-10T14:13:45;-3.60;99.90
3488;DHT22;38546;48.170;11.724;2024-01-10T14:16:16;-3.60;99.90
3488;DHT22;38546;48.170;11.724;2024-01-10T14:18:47;-3.60;99.90
3488;DHT22;38546;48.170;11.724;2024-01-10T14:21:18;-3.40;99.90
3488;DHT22;38546;48.170;11.724;2024-01-10T14:23:50;-3.50;99.90
3488;DHT22;38546;48.170;11.724;2024-01-10T14:26:20;-3.70;99.90
3488;DHT22;38546;48.170;11.724;2024-01-10T14:28:51;-3.60;99.90
3488;DHT22;38546;48.170;11.724;2024-01-10T14:31:25;-3.60;99.90
3488;DHT22;38546;48.170;11.724;2024-01-10T14:33:56;-3.70;99.90
3488;DHT22;38546;48.170;11.724;2024-01-10T14:36:27;-3.60;99.90
3488;DHT22;38546;48.170;11.724;2024-01-10T14:38:58;-3.60;99.90
3488;DHT22;38546;48.170;11.724;2024-01-10T14:41:29;-3.50;99.90
3488;DHT22;38546;48.170;11.724;2024-01-10T14:44:00;-3.60;99.90
3488;DHT22;38546;48.170;11.724;2024-01-10T14:46:31;-3.70;99.90
3488;DHT22;38546;48.170;11.724;2024-01-10T14:49:02;-3.80;99.90
3488;DHT22;38546;48.170;11.724;2024-01-10T14:51:32;-3.70;99.90
3488;DHT22;38546;48.170;11.724;2024-01-10T14:54:03;-3.70;99.90
3488;DHT22;38546;48.170;11.724;2024-01-10T14:56:34;-3.80;99.90
3488;DHT22;38546;48.170;11.724;2024-01-10T14:59:05;-3.70;99.90
3488;DHT22;38546;48.170;11.724;2024-01-10T15:01:35;-3.70;99.90
3488;DHT22;38546;48.170;11.724;2024-01-10T15:04:06;-3.70;99.90
3488;DHT22;38546;48.170;11.724;2024-01-10T15:06:47;-3.80;99.90
3488;DHT22;38546;48.170;11.724;2024-01-10T15:09:18;-3.70;99.90
3488;DHT22;38546;48.170;11.724;2024-01-10T15:11:49;-3.80;99.90
3488;DHT22;38546;48.170;11.724;2024-01-10T15:14:21;-3.90;99.90
3488;DHT22;38546;48.170;11.724;2024-01-10T15:16:52;-4.00;99.90
3488;DHT22;38546;48.170;11.724;2024-01-10T15:19:23;-4.10;99.90
3488;DHT22;38546;48.170;11.724;2024-01-10T15:21:54;-4.00;99.90
3488;DHT22;38546;48.170;11.724;2024-01-10T15:24:25;-3.90;99.90
3488;DHT22;38546;48.170;11.724;2024-01-10T15:26:57;-3.80;99.90
3488;DHT22;38546;48.170;11.724;2024-01-10T15:29:32;-3.80;99.90
3488;DHT22;38546;48.170;11.724;2024-01-10T15:32:04;-3.80;99.90
3488;DHT22;38546;48.170;11.724;2024-01-10T15:34:35;-3.70;99.90
3488;DHT22;38546;48.170;11.724;2024-01-10T15:37:06;-3.70;99.90
3488;DHT22;38546;48.170;11.724;2024-01-10T15:39:36;-3.70;99.90
3488;DHT22;38546;48.170;11.724;2024-01-10T15:42:09;-3.60;99.90
3488;DHT22;38546;48.170;11.724;2024-01-10T15:44:41;-3.60;99.90
3488;DHT22;38546;48.170;11.724;2024-01-10T15:47:12;-3.60;99.90
3488;DHT22;38546;48.170;11.724;2024-01-10T15:49:43;-3.60;99.90
3488;DHT22;38546;48.170;11.724;2024-01-10T15:52:14;-3.60;99.90
3488;DHT22;38546;48.170;11.724;2024-01-10T15:54:45;-3.80;99.90
3488;DHT22;38546;48.170;11.724;2024-01-10T15:57:17;-3.70;99.90
3488;DHT22;38546;48.170;11.724;2024-01-10T15:59:48;-3.70;99.90
3488;DHT22;38546;48.170;11.724;2024-01-10T16:02:19;-3.70;99.90
3488;DHT22;38546;48.170;11.724;2024-01-10T16:04:50;-3.70;99.90
3488;DHT22;38546;48.170;11.724;2024-01-10T16:07:20;-3.60;99.90